East Mecca
DateTemperatureDew Point
08/14 - 05:45 AM81.1°75.2°
08/14 - 05:30 AM81.6°74.9°
08/14 - 05:15 AM82.4°74.6°
08/14 - 05:00 AM83.4°74.3°
08/14 - 04:45 AM83.4°74.3°
08/14 - 04:30 AM84.5°74.1°
08/14 - 04:15 AM84.0°74.4°
08/14 - 04:00 AM83.7°74.0°
08/14 - 03:45 AM83.5°74.0°
08/14 - 03:30 AM83.4°74.0°
08/14 - 03:15 AM83.6°73.7°
08/14 - 03:00 AM84.1°73.2°
08/14 - 02:45 AM84.2°73.8°
08/14 - 02:30 AM83.6°75.3°
08/14 - 02:15 AM83.6°75.9°
08/14 - 02:00 AM84.8°75.3°
08/14 - 01:45 AM85.4°74.6°
08/14 - 01:30 AM85.3°75.8°
08/14 - 01:15 AM86.3°74.6°
08/14 - 01:00 AM87.3°73.7°
08/14 - 12:45 AM89.1°72.5°
08/14 - 12:30 AM90.1°72.3°
08/14 - 12:15 AM90.4°72.3°
08/14 - 12:00 AM90.4°72.6°
08/13 - 11:45 PM90.2°73.2°
08/13 - 11:30 PM89.5°75.2°
08/13 - 11:15 PM88.6°78.5°
08/13 - 11:00 PM88.1°79.2°
08/13 - 10:45 PM87.5°79.1°
08/13 - 10:30 PM87.3°79.1°
08/13 - 10:15 PM86.4°79.3°
08/13 - 10:00 PM86.0°79.9°
08/13 - 09:45 PM86.8°79.6°
08/13 - 09:30 PM88.1°78.9°
08/13 - 09:15 PM88.3°79.3°
08/13 - 09:00 PM88.1°78.8°
08/13 - 08:45 PM88.7°78.9°
08/13 - 08:30 PM88.9°80.0°
08/13 - 08:15 PM89.8°81.0°
08/13 - 08:00 PM91.2°81.4°
08/13 - 07:45 PM92.0°80.6°
08/13 - 07:30 PM93.0°79.2°
08/13 - 07:15 PM94.5°78.7°
08/13 - 07:00 PM96.7°75.8°
08/13 - 06:45 PM96.7°75.8°
08/13 - 06:30 PM96.6°76.9°
08/13 - 06:15 PM96.6°76.7°
08/13 - 06:00 PM97.1°75.8°
08/13 - 05:45 PM98.0°74.5°
08/13 - 05:30 PM98.2°73.9°
08/13 - 05:15 PM98.7°73.4°
08/13 - 05:00 PM98.7°73.1°
08/13 - 04:45 PM98.6°73.3°
08/13 - 04:30 PM99.3°72.4°
08/13 - 04:15 PM99.4°71.0°
08/13 - 04:00 PM99.4°71.5°
08/13 - 03:45 PM99.2°71.4°
08/13 - 03:30 PM98.4°72.7°
08/13 - 03:15 PM98.2°72.6°
08/13 - 03:00 PM97.9°72.6°
08/13 - 02:45 PM97.8°72.8°
08/13 - 02:30 PM97.2°73.6°
08/13 - 02:15 PM97.1°73.0°
08/13 - 02:00 PM96.9°72.6°
08/13 - 01:45 PM97.1°72.5°
08/13 - 01:30 PM96.7°72.3°
08/13 - 01:15 PM96.2°72.5°
08/13 - 01:00 PM96.0°72.5°
08/13 - 12:45 PM95.2°72.7°
08/13 - 12:30 PM94.7°73.2°
08/13 - 12:15 PM94.1°72.5°
08/13 - 12:00 PM93.5°72.8°
08/13 - 11:45 AM93.1°74.0°
08/13 - 11:30 AM93.4°74.2°
08/13 - 11:15 AM92.1°73.7°
08/13 - 11:00 AM91.0°76.1°
08/13 - 10:45 AM90.4°75.8°
08/13 - 10:30 AM89.7°75.4°
08/13 - 10:15 AM89.0°77.0°
08/13 - 10:00 AM88.1°77.4°
08/13 - 09:45 AM86.7°78.9°
08/13 - 09:30 AM86.2°79.4°
08/13 - 09:15 AM85.8°79.4°
08/13 - 09:00 AM86.7°78.3°
08/13 - 08:45 AM86.6°77.4°
08/13 - 08:30 AM85.7°77.9°
08/13 - 08:15 AM84.6°78.6°
08/13 - 08:00 AM83.8°78.4°
08/13 - 07:45 AM83.3°77.9°
08/13 - 07:30 AM82.9°77.3°
08/13 - 07:15 AM82.0°77.6°
08/13 - 07:00 AM80.6°76.7°
08/13 - 06:45 AM80.7°76.0°
08/13 - 06:30 AM80.0°75.4°
08/13 - 06:15 AM79.6°75.6°
08/13 - 06:00 AM79.3°75.3°
08/13 - 05:45 AM78.6°75.1°
08/13 - 05:30 AM78.3°75.0°
08/13 - 05:15 AM78.2°75.0°
08/13 - 05:00 AM78.4°74.8°
08/13 - 04:45 AM78.6°74.7°
08/13 - 04:30 AM78.4°74.9°
08/13 - 04:15 AM78.6°75.5°
08/13 - 04:00 AM79.7°75.9°
08/13 - 03:45 AM80.6°76.1°
08/13 - 03:30 AM80.4°75.9°
08/13 - 03:15 AM80.5°76.0°
08/13 - 03:00 AM79.1°75.7°
08/13 - 02:45 AM78.6°75.0°
08/13 - 02:30 AM78.6°74.9°
08/13 - 02:15 AM78.4°74.9°
08/13 - 02:00 AM78.5°75.0°
08/13 - 01:45 AM79.0°74.9°
08/13 - 01:30 AM79.5°75.1°
08/13 - 01:15 AM79.5°75.3°
08/13 - 01:00 AM79.5°75.9°
08/13 - 12:45 AM80.9°74.3°
08/13 - 12:30 AM88.0°70.7°
08/13 - 12:15 AM91.1°70.4°
08/13 - 12:00 AM92.0°69.7°
08/12 - 11:45 PM91.6°69.7°
08/12 - 11:30 PM93.5°69.1°
08/12 - 11:15 PM96.5°68.5°
08/12 - 11:00 PM97.2°67.7°
08/12 - 10:45 PM95.0°73.3°
08/12 - 10:30 PM94.4°76.5°
08/12 - 10:15 PM94.6°76.5°
08/12 - 10:00 PM94.5°76.8°
08/12 - 09:45 PM94.4°77.6°
08/12 - 09:30 PM94.4°77.4°
08/12 - 09:15 PM95.3°76.2°
08/12 - 09:00 PM95.9°74.9°
08/12 - 08:45 PM96.2°73.7°
08/12 - 08:30 PM96.5°73.7°
08/12 - 08:15 PM97.7°68.4°
08/12 - 08:00 PM97.3°69.9°
08/12 - 07:45 PM97.6°71.0°
08/12 - 07:30 PM97.9°70.4°
08/12 - 07:15 PM98.7°69.8°
08/12 - 07:00 PM98.5°71.1°
08/12 - 06:45 PM98.8°72.7°
08/12 - 06:30 PM99.6°72.6°
08/12 - 06:15 PM100.1°72.6°
08/12 - 06:00 PM100.0°73.1°
08/12 - 05:45 PM99.8°73.0°
08/12 - 05:30 PM99.9°72.8°
08/12 - 05:15 PM99.0°72.7°
08/12 - 05:00 PM98.0°72.6°
08/12 - 04:45 PM97.5°72.8°
08/12 - 04:30 PM99.0°72.3°
08/12 - 04:15 PM99.5°71.8°
08/12 - 04:00 PM99.6°73.2°
08/12 - 03:45 PM99.3°74.9°
08/12 - 03:30 PM99.9°74.0°
08/12 - 03:15 PM99.8°73.1°
08/12 - 03:00 PM99.3°72.8°
08/12 - 02:45 PM98.4°73.8°
08/12 - 02:30 PM98.0°75.2°
08/12 - 02:15 PM98.1°75.3°
08/12 - 02:00 PM97.4°74.8°
08/12 - 01:45 PM97.3°75.0°
08/12 - 01:30 PM97.7°74.8°
08/12 - 01:15 PM98.4°74.0°
08/12 - 01:00 PM98.4°76.1°
08/12 - 12:45 PM98.2°76.8°
08/12 - 12:30 PM98.4°77.6°
08/12 - 12:15 PM99.3°77.0°
08/12 - 12:00 PM98.4°77.3°
08/12 - 11:45 AM97.6°77.1°
08/12 - 11:30 AM97.3°76.2°
08/12 - 11:15 AM97.3°75.0°
08/12 - 11:00 AM96.4°73.6°
08/12 - 10:45 AM95.5°72.2°
08/12 - 10:30 AM95.6°71.5°
08/12 - 10:15 AM95.4°73.2°
08/12 - 10:00 AM95.4°75.2°
08/12 - 09:45 AM93.9°75.0°
08/12 - 09:30 AM93.9°74.4°
08/12 - 09:15 AM94.2°74.1°
08/12 - 09:00 AM93.5°72.7°
08/12 - 08:45 AM93.9°69.2°
08/12 - 08:30 AM94.0°66.2°
08/12 - 08:15 AM93.7°66.8°
08/12 - 08:00 AM94.4°65.1°
08/12 - 07:45 AM93.1°64.7°
08/12 - 07:30 AM91.1°63.5°
08/12 - 07:15 AM89.9°63.4°
08/12 - 07:00 AM85.9°63.7°
08/12 - 06:45 AM81.7°63.4°
08/12 - 06:30 AM79.5°61.9°
08/12 - 06:15 AM80.9°58.4°